Accueil
METAR-TAF:

METAR-TAF

Aéroports :

Aéroport de Carcassonne Salvaza

Carcassonne, France

latitude: 43-13N, longitude: 002-19E, altitude: 130 m

Observation

Le bulletin a été fait il y a 14 minutes, à 13:00 UTC
Vent 9 kt de ouest/nord-ouest, variant entre ouest et nord/nord-ouest
Température 29°C
Humidité 35%
Pression 1016 hPa
Visibilité 10 km ou plus
pas de nuages en-dessous de 1500 mètres et pas de cumulonimbus.

METAR: LFMK 251300Z AUTO 30009KT 270V330 CAVOK 29/12 Q1016 NOSIG

Heure: 15:14 (13:14 UTC)

Prévision

Le bulletin a été fait il y a 5 heures et 14 minutes, à 08:00 UTC
Prévision valable du 25 à 09 UTC au 26 à 09 UTC
Vent 10 kt de ouest/nord-ouest
Visibilité 10 km ou plus
pas de nuages en-dessous de 1500 mètres et pas de cumulonimbus.
Evoluant progressivement
du 25 à 19 UTC au 25 à 21 UTC
Vent 10 kt de est

TAF: LFMK 250800Z 2509/2609 30010KT CAVOK BECMG 2519/2521 09010KT

Observations et prévisions météorologiques de plus de 4000 aéroports (messages METAR et TAF).

Les stations disponibles sont représentées par des disques jaunes et rouges sur la carte.

Passer la souris dessus pour voir le nom de la station.

Cliquer dessus pour voir les observations et prévisions météorologiques.

Pour changer de carte: cliquez sur les boutons verts avec une croix noire pour zoomer, sur le bouton vert avec un tiret pour effectuer un zoom arrière, ou sur les flèches vertes pour les cartes adjacentes.


METAR-TAF: